• Join FlightAware (Why Join?)
  • Login
  • US Flag 
07:49AM EDT


 

Airport Tracker/Info


-or-


 

Live Flight TrackerFlight Track Log ✈ GLA170 ✈ 22-Apr-2012 ✈ KLAX - KPRC

Flight Track Log - Related Links

Times and Time Zones

All times are in EDT time to prevent confusion due to time zone crossing. See the GLA170 flight status page for this flight to view local times or setup timezone preferences in your user account.

Time Position Orientation Groundspeed Altitude Reporting Facility
EDT Latitude Longitude Course Direction KTS MPH feet Rate Location/Type
08:48PM 33.9333 -118.4333 225° Southwest 148 170 1,500  Level Southern California TRACON
08:49PM 33.8958 -118.4786 197° South 178 205 3,800 1,800 Climbing Los Angeles Center
08:50PM 33.8517 -118.4950 167° South 178 205 5,800 1,920 Climbing Los Angeles Center
08:51PM 33.8122 -118.4839 119° Southeast 169 194 7,700 1,920 Climbing Los Angeles Center
08:52PM 33.7903 -118.4358 99° East 140 161 9,700 1,680 Climbing Los Angeles Center
08:53PM 33.7831 -118.3781 89° East 145 167 11,200 1,200 Climbing Los Angeles Center
08:54PM 33.7842 -118.3131 89° East 169 194 12,200 1,260 Climbing Los Angeles Center
08:55PM 33.7853 -118.2431 93° East 199 229 13,800 1,380 Climbing Los Angeles Center
08:56PM 33.7825 -118.1731 91° East 204 235 15,000 1,200 Climbing Los Angeles Center
08:57PM 33.7817 -118.0956 89° East 210 242 16,200 960 Climbing Los Angeles Center
08:58PM 33.7828 -118.0206 96° East 217 250 17,000 360 Climbing Los Angeles Center
08:59PM 33.7756 -117.9381 94° East 227 261 17,000  Level Los Angeles Center
09:00PM 33.7706 -117.8506 95° East 242 278 17,100  Climbing Los Angeles Center
09:01PM 33.7636 -117.7603 96° East 256 295 17,000 -60 Descending Los Angeles Center
09:02PM 33.7564 -117.6728 95° East 256 295 17,000  Level Los Angeles Center
09:03PM 33.7511 -117.5928 95° East 256 295 17,100  Climbing Los Angeles Center
09:04PM 33.7439 -117.5028 97° East 261 300 17,100 -60 Level Los Angeles Center
09:05PM 33.7344 -117.4150 96° East 261 300 17,000 -60 Descending Los Angeles Center
09:06PM 33.7269 -117.3250 96° East 261 300 17,000  Level Los Angeles Center
09:07PM 33.7194 -117.2375 94° East 261 300 17,100  Climbing Los Angeles Center
09:08PM 33.7139 -117.1500 98° East 261 300 17,000 -60 Descending Los Angeles Center
09:09PM 33.7042 -117.0625 96° East 261 300 17,000  Level Los Angeles Center
09:10PM 33.6964 -116.9725 98° East 261 300 17,000  Level Los Angeles Center
09:11PM 33.6867 -116.8850 96° East 261 300 17,000 -60 Level Los Angeles Center
09:12PM 33.6789 -116.7978 96° East 261 300 16,900 -120 Descending Los Angeles Center
09:13PM 33.6708 -116.7128 95° East 261 300 16,800 -60 Descending Los Angeles Center
09:14PM 33.6650 -116.6253 94° East 261 300 16,800  Level Los Angeles Center
09:15PM 33.6592 -116.5356 96° East 261 300 16,800 120 Level Los Angeles Center
09:16PM 33.6511 -116.4506 97° East 261 300 17,100 180 Climbing Los Angeles Center
09:17PM 33.6428 -116.3633 95° East 256 295 17,200  Climbing Los Angeles Center
09:18PM 33.6367 -116.2758 92° East 256 295 17,100 -60 Descending Los Angeles Center
09:19PM 33.6347 -116.1886 85° East 256 295 17,100  Level Los Angeles Center
09:20PM 33.6411 -116.0986 66° East 256 295 17,100  Level Los Angeles Center
09:21PM 33.6722 -116.0164 66° East 256 295 17,100  Level Los Angeles Center
09:22PM 33.7036 -115.9314 68° East 267 307 17,100  Level Los Angeles Center
09:23PM 33.7325 -115.8464 67° East 267 307 17,100  Level Los Angeles Center
09:24PM 33.7617 -115.7639 68° East 267 307 17,100  Level Los Angeles Center
09:25PM 33.7906 -115.6764 66° East 273 314 17,100  Level Los Angeles Center
09:26PM 33.8214 -115.5911 67° East 273 314 17,100  Level Los Angeles Center
09:27PM 33.8544 -115.4983 69° East 273 314 17,100 -60 Level Los Angeles Center
09:28PM 33.8831 -115.4106 66° East 273 314 17,000  Descending Los Angeles Center
09:29PM 33.9139 -115.3278 69° East 273 314 17,100  Climbing Los Angeles Center
09:30PM 33.9425 -115.2397 66° East 273 314 17,000  Descending Los Angeles Center
09:31PM 33.9733 -115.1544 65° Northeast 273 314 17,100  Climbing Los Angeles Center
09:32PM 34.0058 -115.0689 69° East 273 314 17,000  Descending Los Angeles Center
09:33PM 34.0344 -114.9808 69° East 273 314 17,100  Climbing Los Angeles Center
09:34PM 34.0628 -114.8925 67° East 273 314 17,100 -60 Level Los Angeles Center
09:35PM 34.0931 -114.8067 69° East 273 314 17,000 60 Descending Los Angeles Center
09:36PM 34.1214 -114.7161 67° East 273 314 17,300 60 Climbing Los Angeles Center
09:37PM 34.1517 -114.6278 67° East 273 314 17,200 -60 Descending Los Angeles Center
09:38PM 34.1819 -114.5417 67° East 273 314 17,200  Level Los Angeles Center
09:39PM 34.2119 -114.4558 69° East 273 314 17,200 -120 Level Los Angeles Center
09:41PM 34.2628 -114.2992 69° East 296 341 17,000 -60 Descending Albuquerque Center
09:42PM 34.2908 -114.2111 72° East 290 334 17,100  Climbing Albuquerque Center
09:43PM 34.3147 -114.1200 74° East 285 328 17,000 -180 Descending Albuquerque Center
09:44PM 34.3364 -114.0286 71° East 280 322 16,800  Descending Albuquerque Center
09:45PM 34.3625 -113.9353 74° East 280 322 17,000 60 Climbing Albuquerque Center
09:46PM 34.3842 -113.8439 74° East 280 322 17,000  Level Albuquerque Center
09:47PM 34.4058 -113.7525 73° East 280 322 17,000  Level Albuquerque Center
09:48PM 34.4294 -113.6611 74° East 280 322 17,000 -120 Level Albuquerque Center
09:49PM 34.4483 -113.5794 76° East 280 322 16,800 -480 Descending Albuquerque Center
09:50PM 34.4678 -113.4878 75° East 280 322 16,100 -780 Descending Albuquerque Center
09:51PM 34.4892 -113.3936 73° East 280 322 15,300 -720 Descending Albuquerque Center
09:52PM 34.5128 -113.2994 75° East 280 322 14,700 -660 Descending Albuquerque Center
09:53PM 34.5342 -113.2028 77° East 285 328 14,000 -780 Descending Albuquerque Center
09:54PM 34.5539 -113.0983 84° East 290 334 13,200 -720 Descending Albuquerque Center
09:55PM 34.5628 -113.0006 85° East 290 334 12,600 -600 Descending Albuquerque Center
09:56PM 34.5692 -112.9025 85° East 290 334 12,000 -600 Descending Albuquerque Center
09:57PM 34.5758 -112.8047 84° East 290 334 11,400 -780 Descending Albuquerque Center
09:58PM 34.5844 -112.7069 84° East 290 334 10,500 -1,140 Descending Albuquerque Center
09:59PM 34.5931 -112.6089 78° East 290 334 9,200 -1,260 Descending Albuquerque Center
10:00PM 34.6069 -112.5292 53° Northeast 273 314 8,000 -1,200 Descending Albuquerque Center
10:01PM 34.6428 -112.4708 42° Northeast 230 265 6,800 -900 Descending Albuquerque Center
10:02PM 34.6844 -112.4253 121° Southeast 201 231 6,300 -780 Descending Albuquerque Center
10:03PM 34.6728 -112.4019 121° Southeast 77 89 5,300 -1,020 Descending Albuquerque Center